Weather at Assiniboia Airport

Public forecast

Using degrees Celsius for public forecast. Weather courtesy of forecast.io.

Closest aviation weather report (METAR) to Assiniboia Airport

Closest report is Moose Jaw Air Vice Marshal C. M. McEwen Airport, 38.8 nm (71.8 km) NNE. Retrieved 2021/09/24 18:00 UTC (28 minutes ago):

CYMJ 241800Z 31021G26KT 15SM FEW240 14/M05 A3013 RMK CI2 SLP219

Closest aviation forecast (TAF) to Assiniboia Airport

Closest forecast is Moose Jaw Air Vice Marshal C. M. McEwen Airport, 38.8 nm (71.8 km) NNE. Retrieved 2021/09/24 18:33 UTC (0 seconds ago):

TAF CYMJ 241730Z 2418/2506 30020G30KT P6SM FEW240 BECMG 2422/2424 29010KT FM250300 VRB03KT P6SM FEW100 RMK NXT FCST BY 250000Z